Time;durP1;ratioP1;P1;durP2;ratioP2;P2;SDS_P1;SDS_P2;PMS_P1;PMS_P2;Temp;Humidity;BMP_temperature;BMP_pressure;BME280_temperature;BME280_humidity;BME280_pressure;Samples;Min_cycle;Max_cycle;Signal;HPM_P1;HPM_P2
2022/06/23 00:02:22;;;;;;;1.92;1.20;;;21.00;60.60;;;;;;5049822;28;20132;-72
2022/06/23 00:04:49;;;;;;;1.48;1.17;;;21.20;61.30;;;;;;5050190;28;20136;-72
2022/06/23 00:07:18;;;;;;;1.45;1.20;;;21.40;60.10;;;;;;5054097;28;20123;-72
2022/06/23 00:09:50;;;;;;;1.65;1.30;;;21.10;61.10;;;;;;5070035;28;20075;-71
2022/06/23 00:12:21;;;;;;;2.58;1.38;;;21.10;60.50;;;;;;5069955;28;20049;-72
2022/06/23 00:14:50;;;;;;;1.38;1.20;;;21.10;57.40;;;;;;5069827;28;20131;-71
2022/06/23 00:17:18;;;;;;;1.27;1.13;;;21.10;59.40;;;;;;5069163;28;20055;-72
2022/06/23 00:19:45;;;;;;;1.52;1.30;;;21.10;61.00;;;;;;5055377;28;20147;-72
2022/06/23 00:22:12;;;;;;;1.27;1.10;;;21.10;57.40;;;;;;5050254;28;20055;-72
2022/06/23 00:24:39;;;;;;;1.17;1.08;;;21.10;60.80;;;;;;5049747;28;20045;-72
2022/06/23 00:27:09;;;;;;;1.95;1.30;;;21.10;61.30;;;;;;5049896;28;20144;-71
2022/06/23 00:29:35;;;;;;;2.50;1.25;;;20.90;60.80;;;;;;5050766;28;20136;-71
2022/06/23 00:32:04;;;;;;;1.52;1.20;;;21.00;57.30;;;;;;5050858;28;20049;-72
2022/06/23 00:34:33;;;;;;;1.83;1.20;;;21.00;60.10;;;;;;5050326;28;20048;-72
2022/06/23 00:37:02;;;;;;;1.63;1.25;;;21.00;57.30;;;;;;5050452;28;20669;-72
2022/06/23 00:39:32;;;;;;;1.48;1.20;;;21.00;57.30;;;;;;5049326;28;20486;-72
2022/06/23 00:41:59;;;;;;;1.42;1.20;;;23.40;58.70;;;;;;5049628;28;20134;-72
2022/06/23 00:44:30;;;;;;;1.48;1.27;;;21.00;57.30;;;;;;5049631;28;20459;-72
2022/06/23 00:46:58;;;;;;;1.58;1.30;;;20.30;60.90;;;;;;5049516;28;20554;-72
2022/06/23 00:49:27;;;;;;;1.75;1.38;;;21.00;62.00;;;;;;5048972;28;20057;-72
2022/06/23 00:51:56;;;;;;;1.30;1.20;;;21.10;61.60;;;;;;5050158;28;20131;-72
2022/06/23 00:54:25;;;;;;;2.60;1.23;;;20.90;60.90;;;;;;5049284;28;20508;-73
2022/06/23 00:56:54;;;;;;;1.20;1.10;;;21.00;57.40;;;;;;5050297;28;20045;-72
2022/06/23 00:59:22;;;;;;;1.60;1.40;;;21.00;57.40;;;;;;5050846;28;20075;-72
2022/06/23 01:01:54;;;;;;;1.13;1.02;;;21.00;57.40;;;;;;5058152;28;20135;-73
2022/06/23 01:04:27;;;;;;;1.40;1.30;;;20.80;61.10;;;;;;5069073;28;20135;-72
2022/06/23 01:06:56;;;;;;;1.45;1.23;;;20.90;57.40;;;;;;5069469;28;20167;-72
2022/06/23 01:09:34;;;;;;;1.38;1.23;;;20.90;60.60;;;;;;5054135;28;20121;-71
2022/06/23 01:12:03;;;;;;;1.73;1.30;;;20.80;61.10;;;;;;5069944;28;20556;-72
2022/06/23 01:14:34;;;;;;;1.80;1.20;;;21.00;61.70;;;;;;5068698;28;20103;-72
2022/06/23 01:17:07;;;;;;;1.30;1.20;;;20.90;57.40;;;;;;5068997;28;20048;-72
2022/06/23 01:20:17;;;;;;;1.58;1.25;;;20.90;57.40;;;;;;5068252;28;20140;-72
2022/06/23 01:22:57;;;;;;;1.27;1.17;;;20.80;60.70;;;;;;4991333;28;20141;-72
2022/06/23 01:26:04;;;;;;;1.30;1.20;;;20.90;57.50;;;;;;4990825;28;20143;-72
2022/06/23 01:28:36;;;;;;;2.00;1.50;;;20.90;61.80;;;;;;5057393;28;20131;-72
2022/06/23 01:31:05;;;;;;;1.80;1.35;;;20.80;61.50;;;;;;5068299;28;20045;-72
2022/06/23 01:33:35;;;;;;;1.40;1.30;;;20.80;57.40;;;;;;5068618;28;20135;-72
2022/06/23 01:36:04;;;;;;;1.10;1.00;;;20.70;61.70;;;;;;5069482;28;20048;-72
2022/06/23 01:38:47;;;;;;;1.55;1.30;;;20.70;60.80;;;;;;5068455;28;20151;-72
2022/06/23 01:41:17;;;;;;;1.60;1.20;;;20.80;57.50;;;;;;5068508;28;20139;-72
2022/06/23 01:43:48;;;;;;;1.40;1.27;;;20.90;61.60;;;;;;5052786;28;20059;-73
2022/06/23 01:46:16;;;;;;;1.20;1.10;;;20.40;60.80;;;;;;5049551;28;20128;-73
2022/06/23 01:48:54;;;;;;;2.67;1.30;;;20.70;61.50;;;;;;5048921;28;20147;-72
2022/06/23 01:51:23;;;;;;;1.63;1.30;;;21.00;57.60;;;;;;5048285;28;20774;-72
2022/06/23 01:53:51;;;;;;;1.50;1.40;;;21.70;61.30;;;;;;5049180;28;20136;-72
2022/06/23 01:56:26;;;;;;;1.40;1.15;;;20.70;61.00;;;;;;5049067;28;20103;-73
2022/06/23 01:59:00;;;;;;;1.27;1.17;;;20.80;57.50;;;;;;5068328;28;20481;-72
2022/06/23 02:01:30;;;;;;;1.48;1.20;;;20.70;57.40;;;;;;5067579;28;20091;-72
2022/06/23 02:04:00;;;;;;;1.40;1.30;;;20.70;57.40;;;;;;5067742;28;20555;-72
2022/06/23 02:06:29;;;;;;;1.77;1.40;;;20.70;57.50;;;;;;5068023;28;20087;-73
2022/06/23 02:09:00;;;;;;;1.40;1.30;;;20.70;57.50;;;;;;5068825;28;20127;-72
2022/06/23 02:11:30;;;;;;;1.60;1.30;;;20.70;57.50;;;;;;5068066;28;20064;-72
2022/06/23 02:14:04;;;;;;;1.60;1.42;;;20.70;57.50;;;;;;5057958;28;20076;-72
2022/06/23 02:16:33;;;;;;;1.40;1.27;;;20.60;61.70;;;;;;5047641;28;20456;-72
2022/06/23 02:19:02;;;;;;;3.08;1.88;;;20.70;61.20;;;;;;5047817;28;20576;-73
2022/06/23 02:21:31;;;;;;;1.52;1.30;;;20.70;57.50;;;;;;5047807;28;20059;-73
2022/06/23 02:24:01;;;;;;;2.28;1.30;;;20.70;61.10;;;;;;5049325;28;20052;-72
2022/06/23 02:26:32;;;;;;;1.77;1.30;;;20.30;60.40;;;;;;5068856;28;20055;-72
2022/06/23 02:29:04;;;;;;;1.40;1.20;;;20.70;57.50;;;;;;5068932;28;20052;-73
2022/06/23 02:31:34;;;;;;;1.60;1.42;;;20.60;61.60;;;;;;5068148;28;20728;-72
2022/06/23 02:34:06;;;;;;;1.42;1.30;;;19.40;61.00;;;;;;5067546;28;20052;-72
2022/06/23 02:36:39;;;;;;;1.50;1.25;;;21.00;61.70;;;;;;5068758;28;20063;-73
2022/06/23 02:39:06;;;;;;;1.65;1.40;;;20.40;61.50;;;;;;5068425;28;20051;-72
2022/06/23 02:41:35;;;;;;;1.67;1.20;;;20.90;57.70;;;;;;5064168;28;20689;-72
2022/06/23 02:44:14;;;;;;;1.75;1.60;;;20.50;61.40;;;;;;5046896;28;20139;-71
2022/06/23 02:46:59;;;;;;;1.42;1.33;;;20.60;57.50;;;;;;5047568;28;20132;-73
2022/06/23 02:49:37;;;;;;;1.58;1.20;;;20.60;57.40;;;;;;5032834;28;20045;-71
2022/06/23 02:52:31;;;;;;;1.52;1.35;;;20.60;57.50;;;;;;5047578;28;20047;-71
2022/06/23 02:55:10;;;;;;;1.50;1.30;;;20.60;57.50;;;;;;5053999;28;20052;-71
2022/06/23 02:57:40;;;;;;;1.67;1.40;;;20.50;57.50;;;;;;5067667;28;20111;-72
2022/06/23 03:00:13;;;;;;;1.42;1.33;;;20.50;57.50;;;;;;5067383;28;20048;-73
2022/06/23 03:02:42;;;;;;;1.55;1.40;;;20.90;61.50;;;;;;5066413;28;20552;-73
2022/06/23 03:05:15;;;;;;;1.60;1.35;;;20.50;61.00;;;;;;5066905;28;20132;-73
2022/06/23 03:07:42;;;;;;;2.03;1.50;;;20.40;61.50;;;;;;5066440;28;20055;-72
2022/06/23 03:10:13;;;;;;;2.10;1.50;;;20.60;60.90;;;;;;5048177;28;20055;-72
2022/06/23 03:12:41;;;;;;;1.38;1.27;;;20.30;61.30;;;;;;5047299;28;20053;-72
2022/06/23 03:15:13;;;;;;;1.50;1.40;;;20.50;61.60;;;;;;5046911;28;20175;-72
2022/06/23 03:17:41;;;;;;;1.95;1.40;;;20.60;61.00;;;;;;5048310;28;20049;-72
2022/06/23 03:20:11;;;;;;;1.65;1.50;;;20.50;57.60;;;;;;5047289;28;20057;-72
2022/06/23 03:22:41;;;;;;;1.42;1.30;;;20.30;61.10;;;;;;5066507;28;20105;-72
2022/06/23 03:25:13;;;;;;;1.48;1.30;;;20.00;61.30;;;;;;5068165;28;20135;-71
2022/06/23 03:27:45;;;;;;;1.65;1.50;;;20.40;57.50;;;;;;5066836;28;20131;-71
2022/06/23 03:30:18;;;;;;;1.73;1.40;;;21.10;62.10;;;;;;5068317;28;20136;-72
2022/06/23 03:32:47;;;;;;;1.42;1.25;;;20.60;61.20;;;;;;5068184;28;20436;-72
2022/06/23 03:35:17;;;;;;;1.95;1.60;;;20.30;61.80;;;;;;5066797;28;20123;-72
2022/06/23 03:37:47;;;;;;;1.60;1.40;;;19.90;61.20;;;;;;5067077;28;20186;-72
2022/06/23 03:43:10;;;;;;;1.85;1.40;;;20.40;57.60;;;;;;5046975;28;20053;-73
2022/06/23 03:45:41;;;;;;;1.20;1.10;;;20.60;61.90;;;;;;5047263;28;20055;-72
2022/06/23 03:48:11;;;;;;;1.75;1.58;;;20.30;57.50;;;;;;5047025;28;20397;-73
2022/06/23 03:50:39;;;;;;;2.00;1.60;;;20.40;57.60;;;;;;5047089;28;20602;-72
2022/06/23 03:53:10;;;;;;;1.60;1.50;;;20.50;60.90;;;;;;5049665;28;20513;-72
2022/06/23 03:55:38;;;;;;;1.85;1.45;;;20.40;61.10;;;;;;5050245;28;20048;-72
2022/06/23 03:58:13;;;;;;;1.60;1.40;;;20.40;60.80;;;;;;5050140;28;20157;-72
2022/06/23 04:00:41;;;;;;;;;;;20.40;57.60;;;;;;5051813;28;20055;-71
2022/06/23 04:03:19;;;;;;;1.45;1.30;;;20.30;62.00;;;;;;5050292;28;19925;-71
2022/06/23 04:06:17;;;;;;;1.92;1.27;;;20.30;57.70;;;;;;5055315;28;20136;-72
2022/06/23 04:08:47;;;;;;;2.03;1.50;;;20.30;57.60;;;;;;5067634;28;20152;-71
2022/06/23 04:14:01;;;;;;;1.60;1.40;;;20.30;62.10;;;;;;5068415;28;20164;-71
2022/06/23 04:16:29;;;;;;;1.73;1.58;;;19.40;60.50;;;;;;5069489;28;20049;-71
2022/06/23 04:18:56;;;;;;;2.10;1.50;;;21.60;62.60;;;;;;5069676;28;20048;-71
2022/06/23 04:21:25;;;;;;;1.83;1.60;;;20.20;57.60;;;;;;5070335;28;20056;-71
2022/06/23 04:23:53;;;;;;;1.70;1.48;;;20.30;57.60;;;;;;5069537;28;20056;-71
2022/06/23 04:26:21;;;;;;;1.75;1.52;;;20.30;57.60;;;;;;5070100;28;20048;-72
2022/06/23 04:28:49;;;;;;;1.77;1.60;;;20.30;57.60;;;;;;5069754;28;20135;-73
2022/06/23 04:31:17;;;;;;;1.73;1.52;;;20.30;57.60;;;;;;5068020;28;20157;-73
2022/06/23 04:33:45;;;;;;;1.95;1.63;;;20.20;61.30;;;;;;5069375;28;20486;-72
2022/06/23 04:36:17;;;;;;;1.92;1.60;;;19.60;61.20;;;;;;5069329;28;20123;-73
2022/06/23 04:38:46;;;;;;;2.25;1.70;;;20.30;62.20;;;;;;5070724;28;20044;-72
2022/06/23 04:41:15;;;;;;;1.45;1.35;;;20.30;57.50;;;;;;5070614;28;20660;-72
2022/06/23 04:43:42;;;;;;;1.85;1.58;;;20.10;61.20;;;;;;5069346;28;20132;-72
2022/06/23 04:46:10;;;;;;;1.50;1.40;;;20.30;57.50;;;;;;5069443;28;20091;-72
2022/06/23 04:48:45;;;;;;;1.63;1.50;;;20.30;57.50;;;;;;5055025;28;20063;-72
2022/06/23 04:51:24;;;;;;;1.63;1.50;;;20.70;62.10;;;;;;5049192;28;20053;-72
2022/06/23 04:54:00;;;;;;;1.60;1.50;;;20.20;57.40;;;;;;5048543;28;20362;-73
2022/06/23 04:56:45;;;;;;;1.85;1.65;;;20.30;57.50;;;;;;5049334;28;20145;-72
2022/06/23 04:59:35;;;;;;;2.42;1.70;;;20.20;56.90;;;;;;5049108;28;20101;-72
2022/06/23 05:02:03;;;;;;;1.80;1.60;;;20.80;61.50;;;;;;5060807;28;20092;-72
2022/06/23 05:04:33;;;;;;;1.55;1.40;;;20.90;61.70;;;;;;5066818;28;20048;-72
2022/06/23 05:07:00;;;;;;;1.80;1.50;;;20.30;57.60;;;;;;5069082;28;20464;-72
2022/06/23 05:09:28;;;;;;;2.63;1.63;;;20.20;60.90;;;;;;5068819;28;20060;-72
2022/06/23 05:11:57;;;;;;;1.38;1.27;;;20.20;57.60;;;;;;5069221;28;20425;-72
2022/06/23 05:14:33;;;;;;;1.95;1.60;;;20.40;57.70;;;;;;5068649;28;20093;-71
2022/06/23 05:17:06;;;;;;;1.60;1.45;;;20.30;57.60;;;;;;5068682;28;20115;-71
2022/06/23 05:19:35;;;;;;;1.67;1.25;;;20.20;61.00;;;;;;5068487;28;20048;-72
2022/06/23 05:22:09;;;;;;;1.40;1.30;;;20.20;57.50;;;;;;5059843;28;20049;-72
2022/06/23 05:24:38;;;;;;;1.92;1.50;;;19.40;60.50;;;;;;5048633;28;20522;-71
2022/06/23 05:27:06;;;;;;;3.40;1.40;;;20.30;57.60;;;;;;5049123;28;20560;-72
2022/06/23 05:29:35;;;;;;;1.77;1.33;;;21.20;61.30;;;;;;5048216;28;20135;-72
2022/06/23 05:32:04;;;;;;;1.80;1.33;;;19.50;60.90;;;;;;5049594;28;20048;-72
2022/06/23 05:34:32;;;;;;;1.48;1.38;;;19.10;61.60;;;;;;5049566;28;20049;-72
2022/06/23 05:37:03;;;;;;;1.90;1.30;;;20.30;57.60;;;;;;5048232;28;20049;-71
2022/06/23 05:39:33;;;;;;;1.63;1.40;;;20.40;61.80;;;;;;5051367;28;20094;-70
2022/06/23 05:42:01;;;;;;;1.45;1.35;;;20.40;57.60;;;;;;5050158;28;20053;-71
2022/06/23 05:44:29;;;;;;;2.17;1.90;;;20.60;61.30;;;;;;5048448;28;20481;-71
2022/06/23 05:46:55;;;;;;;4.38;1.92;;;20.50;61.30;;;;;;5048739;28;20398;-72
2022/06/23 05:49:24;;;;;;;3.72;1.80;;;20.70;57.50;;;;;;5049575;28;20055;-72
2022/06/23 05:51:53;;;;;;;2.08;1.83;;;21.00;61.70;;;;;;5048342;28;20580;-72
2022/06/23 05:54:23;;;;;;;2.50;1.75;;;20.90;57.00;;;;;;5048271;28;20056;-71
2022/06/23 05:56:51;;;;;;;2.15;1.85;;;21.10;56.70;;;;;;5057813;28;20051;-71
2022/06/23 05:59:22;;;;;;;3.97;1.83;;;21.30;60.20;;;;;;5066611;28;20493;-73
2022/06/23 06:01:51;;;;;;;1.88;1.58;;;21.30;56.10;;;;;;5068035;28;20067;-72
2022/06/23 06:04:19;;;;;;;3.38;1.63;;;21.50;55.90;;;;;;5067671;28;20060;-72
2022/06/23 06:06:46;;;;;;;2.38;1.80;;;21.60;55.60;;;;;;5068083;28;20060;-72
2022/06/23 06:12:00;;;;;;;1.77;1.50;;;22.00;59.60;;;;;;5060377;28;20053;-72
2022/06/23 06:14:29;;;;;;;1.50;1.40;;;21.90;59.40;;;;;;5030804;28;20052;-72
2022/06/23 06:16:56;;;;;;;1.77;1.50;;;21.80;59.80;;;;;;5052314;28;20037;-71
2022/06/23 06:19:24;;;;;;;3.45;1.50;;;22.50;60.00;;;;;;5063017;28;20062;-70
2022/06/23 06:21:52;;;;;;;3.03;1.83;;;22.30;54.60;;;;;;5064040;28;20132;-72
2022/06/23 06:24:21;;;;;;;2.00;1.70;;;22.40;54.50;;;;;;5059633;28;20044;-72
2022/06/23 06:26:48;;;;;;;2.80;1.60;;;22.50;55.00;;;;;;5068981;28;20135;-72
2022/06/23 06:29:19;;;;;;;2.33;1.60;;;22.60;54.40;;;;;;5066262;28;20052;-71
2022/06/23 06:31:47;;;;;;;6.10;1.42;;;23.30;58.50;;;;;;5067736;28;20503;-71
2022/06/23 06:34:15;;;;;;;2.08;1.50;;;22.80;54.30;;;;;;5068719;28;20106;-70
2022/06/23 06:36:42;;;;;;;1.60;1.40;;;22.90;54.20;;;;;;5068757;28;20131;-71
2022/06/23 06:39:10;;;;;;;4.05;1.55;;;23.20;58.80;;;;;;5068157;28;20060;-71
2022/06/23 06:41:38;;;;;;;2.05;1.40;;;22.80;58.20;;;;;;5067655;28;20057;-72
2022/06/23 06:44:05;;;;;;;2.70;1.65;;;23.10;53.90;;;;;;5068312;28;20045;-71
2022/06/23 06:46:33;;;;;;;4.28;1.50;;;23.20;57.80;;;;;;5067640;28;20076;-71
2022/06/23 06:49:00;;;;;;;4.43;1.50;;;23.30;53.80;;;;;;5067779;28;20061;-71
2022/06/23 06:51:27;;;;;;;3.60;1.55;;;23.30;53.70;;;;;;5069144;28;20080;-72
2022/06/23 06:53:55;;;;;;;1.63;1.50;;;23.40;58.30;;;;;;5068719;28;20044;-72
2022/06/23 06:56:23;;;;;;;6.70;1.70;;;23.50;53.50;;;;;;5061984;28;20047;-72
2022/06/23 06:58:55;;;;;;;2.65;1.42;;;23.50;53.40;;;;;;5060780;28;20052;-70
2022/06/23 07:01:23;;;;;;;1.95;1.30;;;23.80;56.80;;;;;;5066749;28;20468;-72
2022/06/23 07:03:52;;;;;;;3.65;1.52;;;23.70;57.90;;;;;;5064615;28;20059;-72
2022/06/23 07:06:22;;;;;;;1.48;1.30;;;23.70;53.30;;;;;;5067617;28;20063;-72
2022/06/23 07:08:52;;;;;;;1.67;1.30;;;23.70;58.40;;;;;;5067225;28;20060;-72
2022/06/23 07:11:21;;;;;;;3.25;1.60;;;23.90;57.50;;;;;;5067600;28;20136;-70
2022/06/23 07:13:49;;;;;;;1.80;1.50;;;24.10;57.80;;;;;;5067228;28;20049;-72
2022/06/23 07:16:18;;;;;;;3.97;1.40;;;24.10;58.20;;;;;;5054340;28;20071;-72
2022/06/23 07:18:47;;;;;;;2.13;1.40;;;24.00;53.00;;;;;;5067351;28;20060;-70
2022/06/23 07:21:17;;;;;;;2.17;1.30;;;24.00;52.90;;;;;;5066668;28;20056;-71
2022/06/23 07:23:46;;;;;;;4.25;1.60;;;23.90;57.10;;;;;;5062580;28;20052;-71
2022/06/23 07:26:23;;;;;;;1.88;1.50;;;24.20;57.30;;;;;;5052403;28;20132;-71
2022/06/23 07:28:51;;;;;;;2.03;1.48;;;24.10;52.70;;;;;;5058506;28;20059;-72
2022/06/23 07:31:20;;;;;;;3.28;1.40;;;24.10;52.60;;;;;;5061896;28;20088;-72
2022/06/23 07:33:49;;;;;;;3.40;1.45;;;24.30;56.20;;;;;;5057649;28;20135;-73
2022/06/23 07:36:19;;;;;;;3.50;1.52;;;24.20;52.50;;;;;;5065704;28;20129;-73
2022/06/23 07:38:48;;;;;;;3.33;1.50;;;24.30;56.50;;;;;;5071017;28;20135;-71
2022/06/23 07:41:17;;;;;;;3.15;1.40;;;24.30;52.50;;;;;;5072306;28;20059;-71
2022/06/23 07:43:45;;;;;;;1.98;1.60;;;24.40;56.60;;;;;;5069662;28;20136;-73
2022/06/23 07:46:12;;;;;;;3.05;1.40;;;24.40;52.50;;;;;;5070792;28;20580;-72
2022/06/23 07:48:39;;;;;;;1.73;1.40;;;23.70;56.00;;;;;;5070477;28;20109;-72
2022/06/23 07:51:07;;;;;;;3.00;1.50;;;24.40;52.30;;;;;;5061743;28;20413;-73
2022/06/23 07:53:37;;;;;;;3.45;1.58;;;24.40;52.30;;;;;;5050681;28;20057;-72
2022/06/23 07:56:04;;;;;;;7.32;1.77;;;24.50;52.40;;;;;;5050398;28;20407;-72
2022/06/23 07:58:33;;;;;;;4.70;2.03;;;24.50;52.60;;;;;;5049250;28;20063;-73
2022/06/23 08:01:02;;;;;;;2.45;1.90;;;24.80;52.90;;;;;;5052722;28;20513;-73
2022/06/23 08:03:30;;;;;;;7.90;2.00;;;24.60;53.40;;;;;;5069727;28;20144;-73
2022/06/23 08:05:59;;;;;;;4.60;1.40;;;24.90;56.90;;;;;;5071411;28;20051;-73
2022/06/23 08:08:27;;;;;;;3.42;1.88;;;24.60;53.40;;;;;;5064793;28;20132;-73
2022/06/23 08:13:36;;;;;;;6.30;1.50;;;24.60;53.10;;;;;;5058585;28;20056;-71
2022/06/23 08:18:50;;;;;;;4.70;1.90;;;24.70;52.90;;;;;;5052571;28;20049;-71
2022/06/23 08:21:18;;;;;;;5.68;1.90;;;24.80;53.00;;;;;;5049937;28;20132;-71
2022/06/23 08:23:47;;;;;;;4.57;1.73;;;24.90;56.60;;;;;;5049811;28;20053;-71
2022/06/23 08:26:16;;;;;;;2.25;1.80;;;24.90;52.80;;;;;;5050058;28;20463;-71
2022/06/23 08:28:42;;;;;;;5.07;1.73;;;24.90;52.70;;;;;;5050180;28;20061;-71
2022/06/23 08:31:09;;;;;;;3.75;1.80;;;25.00;52.70;;;;;;5050828;28;20792;-71
2022/06/23 08:33:36;;;;;;;2.95;1.60;;;25.10;52.70;;;;;;5050741;28;20136;-71
2022/06/23 08:36:07;;;;;;;2.95;1.70;;;25.10;52.50;;;;;;5061539;28;20135;-73
2022/06/23 08:38:35;;;;;;;2.88;1.60;;;25.10;52.40;;;;;;5069065;28;20049;-72
2022/06/23 08:41:22;;;;;;;4.35;1.70;;;25.20;52.40;;;;;;5069875;28;20041;-72
2022/06/23 08:43:51;;;;;;;4.13;2.15;;;25.20;52.30;;;;;;5070474;28;20063;-71
2022/06/23 08:46:22;;;;;;;4.03;1.80;;;25.20;52.30;;;;;;5069098;28;20055;-71
2022/06/23 08:48:55;;;;;;;3.08;1.70;;;25.20;52.30;;;;;;5071196;28;20044;-71
2022/06/23 08:51:24;;;;;;;4.18;1.75;;;25.20;52.10;;;;;;5064484;28;20059;-72
2022/06/23 08:53:59;;;;;;;3.50;1.73;;;25.30;52.30;;;;;;5049004;28;20060;-71
2022/06/23 08:56:29;;;;;;;3.05;1.70;;;25.60;55.20;;;;;;5050480;28;20055;-72
2022/06/23 08:58:58;;;;;;;2.63;1.58;;;25.30;52.10;;;;;;5061251;28;20058;-72
2022/06/23 09:01:27;;;;;;;2.72;1.50;;;25.20;51.90;;;;;;5069009;28;20485;-71
2022/06/23 09:03:56;;;;;;;3.05;2.03;;;25.40;55.80;;;;;;5068953;28;20055;-72
2022/06/23 09:06:33;;;;;;;2.58;1.70;;;25.30;51.90;;;;;;5069669;28;20051;-71
2022/06/23 09:09:16;;;;;;;4.82;1.70;;;25.30;51.80;;;;;;5069086;28;20078;-73
2022/06/23 09:11:48;;;;;;;4.15;2.33;;;25.30;51.80;;;;;;5068523;28;20056;-72
2022/06/23 09:14:34;;;;;;;2.92;1.80;;;25.40;55.60;;;;;;5068133;28;20048;-71
2022/06/23 09:17:09;;;;;;;1.70;1.60;;;25.40;51.90;;;;;;5049034;28;20049;-71
2022/06/23 09:19:42;;;;;;;2.67;1.58;;;26.40;55.10;;;;;;5048829;28;20057;-71
2022/06/23 09:22:37;;;;;;;3.15;1.67;;;25.40;52.20;;;;;;5048887;28;20059;-71
2022/06/23 09:25:12;;;;;;;19.85;3.72;;;25.40;52.20;;;;;;5048629;28;20599;-71
2022/06/23 09:28:00;;;;;;;16.85;3.42;;;25.40;52.30;;;;;;5049946;28;20045;-71
2022/06/23 09:30:34;;;;;;;17.95;3.92;;;25.50;52.40;;;;;;5049926;28;20672;-71
2022/06/23 09:33:01;;;;;;;14.20;3.65;;;25.60;52.20;;;;;;5049686;28;20132;-72
2022/06/23 09:35:50;;;;;;;20.13;4.30;;;25.80;55.00;;;;;;5049917;28;20145;-72
2022/06/23 09:38:47;;;;;;;15.55;3.25;;;25.70;52.40;;;;;;5048169;28;20116;-73
2022/06/23 09:41:21;;;;;;;8.50;2.78;;;25.80;55.60;;;;;;5048129;28;20044;-71
2022/06/23 09:44:08;;;;;;;11.88;3.28;;;25.70;54.80;;;;;;5048057;28;20144;-71
2022/06/23 09:47:01;;;;;;;7.57;3.08;;;25.70;52.20;;;;;;5048534;28;20056;-71
2022/06/23 09:49:52;;;;;;;10.13;3.08;;;25.80;55.80;;;;;;5050204;28;20120;-72
2022/06/23 09:52:54;;;;;;;7.47;2.78;;;25.80;52.20;;;;;;5048138;28;20056;-72
2022/06/23 09:55:52;;;;;;;10.25;2.58;;;25.80;52.20;;;;;;5048452;28;20055;-71
2022/06/23 09:58:55;;;;;;;10.45;3.58;;;25.80;55.40;;;;;;5047820;28;20045;-72
2022/06/23 10:01:30;;;;;;;9.07;2.75;;;25.80;52.40;;;;;;5039921;28;20079;-71
2022/06/23 10:04:17;;;;;;;;;;;25.90;52.60;;;;;;5048006;28;20084;-71
2022/06/23 10:07:06;;;;;;;7.63;2.53;;;25.80;52.50;;;;;;5007910;28;20015;-71
2022/06/23 10:09:40;;;;;;;6.97;2.40;;;25.60;55.10;;;;;;5059365;28;20119;-71
2022/06/23 10:12:25;;;;;;;5.50;2.25;;;25.80;53.20;;;;;;5062351;28;20052;-71
2022/06/23 10:15:00;;;;;;;6.30;2.20;;;25.70;55.30;;;;;;5049231;28;20053;-71
2022/06/23 10:17:39;;;;;;;9.40;2.30;;;26.10;52.90;;;;;;5058261;28;20036;-71
2022/06/23 10:20:26;;;;;;;5.00;2.38;;;25.80;52.20;;;;;;5048529;28;20063;-71
2022/06/23 10:23:21;;;;;;;6.90;2.50;;;25.70;52.10;;;;;;5055789;28;20055;-71
2022/06/23 10:26:11;;;;;;;7.18;2.97;;;25.70;54.80;;;;;;5055383;28;20571;-71
2022/06/23 10:29:01;;;;;;;6.45;2.90;;;25.70;52.40;;;;;;5058624;28;20131;-72
2022/06/23 10:31:37;;;;;;;6.88;2.70;;;25.70;52.40;;;;;;5056995;28;20053;-72
2022/06/23 10:34:22;;;;;;;11.10;2.83;;;25.70;52.50;;;;;;5062755;28;20052;-71
2022/06/23 10:36:55;;;;;;;4.63;2.67;;;25.70;52.50;;;;;;5068959;28;20115;-71
2022/06/23 10:39:34;;;;;;;3.90;2.33;;;25.60;52.60;;;;;;5068120;28;20131;-71
2022/06/23 10:42:12;;;;;;;6.60;2.70;;;25.60;52.70;;;;;;5067608;28;20051;-72
2022/06/23 10:45:08;;;;;;;7.47;2.40;;;25.60;52.80;;;;;;5068804;28;20219;-72
2022/06/23 10:47:58;;;;;;;6.57;2.60;;;25.50;52.60;;;;;;5050299;28;20055;-71
2022/06/23 10:50:33;;;;;;;7.65;2.47;;;25.60;55.30;;;;;;5066949;28;20087;-71
2022/06/23 10:53:17;;;;;;;4.75;2.42;;;25.50;52.90;;;;;;5055001;28;20489;-71
2022/06/23 10:55:53;;;;;;;4.43;2.50;;;25.50;52.90;;;;;;5047727;28;20056;-70
2022/06/23 10:58:31;;;;;;;5.18;2.42;;;25.40;55.80;;;;;;5053065;28;20118;-71
2022/06/23 11:01:04;;;;;;;6.90;2.13;;;24.20;54.60;;;;;;5051193;28;20081;-71
2022/06/23 11:03:48;;;;;;;4.82;2.55;;;25.50;56.00;;;;;;5072041;28;20053;-71
2022/06/23 11:06:42;;;;;;;5.65;2.40;;;25.60;55.80;;;;;;5071661;28;20063;-71
2022/06/23 11:09:17;;;;;;;6.18;2.58;;;25.30;52.80;;;;;;5071315;28;20053;-71
2022/06/23 11:11:52;;;;;;;4.63;2.20;;;25.30;52.90;;;;;;5071966;28;20090;-71
2022/06/23 11:14:26;;;;;;;4.57;2.17;;;25.30;52.90;;;;;;5066260;28;20146;-71
2022/06/23 11:16:58;;;;;;;5.63;2.50;;;25.30;52.90;;;;;;5051492;28;20061;-71
2022/06/23 11:19:33;;;;;;;4.13;2.03;;;25.30;53.00;;;;;;5052148;28;20386;-70
2022/06/23 11:22:10;;;;;;;5.45;2.30;;;25.30;52.90;;;;;;5050836;28;20060;-71
2022/06/23 11:24:51;;;;;;;4.68;2.20;;;25.30;53.00;;;;;;5050838;28;20069;-71
2022/06/23 11:27:21;;;;;;;3.17;1.98;;;25.40;53.30;;;;;;5053409;28;20057;-71
2022/06/23 11:30:04;;;;;;;5.68;2.17;;;25.20;52.80;;;;;;5071240;28;20055;-71
2022/06/23 11:32:39;;;;;;;4.10;1.92;;;25.20;55.90;;;;;;5071849;28;20052;-71
2022/06/23 11:35:14;;;;;;;4.43;2.25;;;25.30;52.90;;;;;;5070567;28;20049;-70
2022/06/23 11:37:51;;;;;;;6.05;2.25;;;25.30;52.90;;;;;;5070665;28;20424;-71
2022/06/23 11:40:26;;;;;;;3.83;1.95;;;25.30;52.80;;;;;;5070412;28;20061;-71
2022/06/23 11:43:01;;;;;;;;;;;25.40;52.90;;;;;;5071008;28;20132;-71
2022/06/23 11:45:34;;;;;;;3.28;1.90;;;25.30;52.90;;;;;;5069332;28;20281;-71
2022/06/23 11:48:09;;;;;;;3.30;2.00;;;25.40;52.90;;;;;;5070331;28;20114;-71
2022/06/23 11:50:39;;;;;;;3.65;1.90;;;25.40;52.70;;;;;;5071762;28;20044;-71
2022/06/23 11:53:18;;;;;;;2.83;1.88;;;25.50;52.70;;;;;;5070193;28;20048;-71
2022/06/23 11:55:45;;;;;;;4.57;1.80;;;25.50;52.60;;;;;;5070511;28;20063;-71
2022/06/23 11:58:37;;;;;;;2.90;1.73;;;25.50;52.60;;;;;;5070346;28;20075;-71
2022/06/23 12:01:14;;;;;;;3.03;1.88;;;25.50;54.80;;;;;;5067993;28;20049;-71
2022/06/23 12:03:52;;;;;;;3.70;1.65;;;24.30;54.60;;;;;;5050151;28;20130;-71
2022/06/23 12:06:23;;;;;;;2.55;1.90;;;25.60;52.50;;;;;;5051920;28;20418;-71
2022/06/23 12:08:57;;;;;;;3.90;2.00;;;25.60;52.40;;;;;;5065964;28;20135;-70
2022/06/23 12:11:24;;;;;;;2.75;1.90;;;25.40;54.90;;;;;;5051523;28;20379;-71
2022/06/23 12:13:51;;;;;;;2.88;1.90;;;25.60;52.40;;;;;;5048515;28;20417;-71
2022/06/23 12:16:17;;;;;;;3.03;1.80;;;25.60;52.30;;;;;;5050724;28;20041;-71
2022/06/23 12:18:48;;;;;;;2.85;1.92;;;25.80;55.40;;;;;;5061308;28;20071;-71
2022/06/23 12:21:21;;;;;;;2.20;1.75;;;25.60;52.30;;;;;;5071064;28;20040;-71
2022/06/23 12:23:58;;;;;;;3.53;1.70;;;25.60;52.20;;;;;;5069528;28;20060;-71
2022/06/23 12:26:26;;;;;;;10.75;2.45;;;25.60;52.20;;;;;;5069833;28;20058;-71
2022/06/23 12:28:56;;;;;;;20.20;3.83;;;25.60;52.30;;;;;;5071096;28;20060;-71
2022/06/23 12:31:28;;;;;;;20.08;3.90;;;25.40;54.90;;;;;;5069516;28;20055;-72
2022/06/23 12:34:02;;;;;;;15.45;3.78;;;25.40;55.60;;;;;;5069546;28;20505;-72
2022/06/23 12:36:30;;;;;;;15.90;4.90;;;25.40;52.60;;;;;;5050723;28;20406;-71
2022/06/23 12:39:00;;;;;;;9.57;3.67;;;25.40;52.60;;;;;;5050751;28;20147;-71
2022/06/23 12:41:30;;;;;;;11.75;3.72;;;25.40;52.60;;;;;;5051203;28;20048;-71
2022/06/23 12:43:58;;;;;;;13.63;3.90;;;25.40;52.60;;;;;;5050532;28;20132;-72
2022/06/23 12:46:31;;;;;;;8.95;3.40;;;25.40;52.70;;;;;;5049508;28;20048;-71
2022/06/23 12:49:08;;;;;;;9.25;3.20;;;25.40;52.70;;;;;;5049374;28;20417;-72
2022/06/23 12:51:42;;;;;;;15.40;3.47;;;25.40;52.80;;;;;;5057281;28;20481;-71
2022/06/23 12:54:28;;;;;;;8.75;2.75;;;25.30;52.80;;;;;;5048834;28;20061;-72
2022/06/23 12:57:21;;;;;;;9.23;3.30;;;25.30;52.80;;;;;;5049522;28;20053;-71
2022/06/23 12:59:50;;;;;;;9.27;3.22;;;25.30;52.80;;;;;;5049420;28;20049;-72
2022/06/23 13:02:22;;;;;;;9.63;2.90;;;25.30;53.00;;;;;;5061680;28;20052;-71
2022/06/23 13:04:50;;;;;;;6.30;2.85;;;25.20;52.90;;;;;;5069099;28;20139;-71
2022/06/23 13:07:20;;;;;;;9.07;2.83;;;25.40;56.30;;;;;;5069051;28;20095;-71
2022/06/23 13:09:51;;;;;;;7.00;2.97;;;25.20;52.90;;;;;;5054815;28;20399;-72
2022/06/23 13:12:22;;;;;;;6.80;2.90;;;25.20;52.90;;;;;;5049081;28;20122;-71
2022/06/23 13:14:51;;;;;;;6.05;2.75;;;25.20;53.00;;;;;;5049977;28;20049;-71
2022/06/23 13:17:25;;;;;;;6.30;2.72;;;25.00;53.00;;;;;;5049160;28;20052;-71
2022/06/23 13:19:54;;;;;;;6.80;2.67;;;25.20;53.00;;;;;;5048338;28;20049;-71
2022/06/23 13:22:21;;;;;;;7.75;3.03;;;25.20;53.00;;;;;;5048767;28;20051;-73
2022/06/23 13:24:54;;;;;;;8.43;2.63;;;25.40;56.00;;;;;;5069138;28;20501;-71
2022/06/23 13:27:23;;;;;;;7.25;3.10;;;25.20;53.10;;;;;;5070122;28;20075;-71
2022/06/23 13:29:53;;;;;;;7.38;3.00;;;25.20;53.10;;;;;;5068090;28;20135;-71
2022/06/23 13:32:24;;;;;;;6.45;2.67;;;25.20;53.10;;;;;;5068727;28;20053;-72